sensor_id;sensor_type;location;lat;lon;timestamp;pressure;altitude;pressure_sealevel;temperature;humidity
11339;BME280;5724;42.684;23.252;2023-02-18T00:01:12;95071.97;;;3.02;63.24
11339;BME280;5724;42.684;23.252;2023-02-18T00:03:39;95070.78;;;3.08;62.48
11339;BME280;5724;42.684;23.252;2023-02-18T00:06:18;95059.56;;;3.01;62.69
11339;BME280;5724;42.684;23.252;2023-02-18T00:08:44;95067.72;;;2.96;63.04
11339;BME280;5724;42.684;23.252;2023-02-18T00:11:10;95044.81;;;2.93;63.08
11339;BME280;5724;42.684;23.252;2023-02-18T00:13:36;95067.22;;;2.94;63.30
11339;BME280;5724;42.684;23.252;2023-02-18T00:16:03;95046.06;;;3.01;63.15
11339;BME280;5724;42.684;23.252;2023-02-18T00:18:29;95054.88;;;2.87;63.85
11339;BME280;5724;42.684;23.252;2023-02-18T00:20:55;95051.03;;;2.75;64.03
11339;BME280;5724;42.684;23.252;2023-02-18T00:23:20;95039.94;;;2.76;64.11
11339;BME280;5724;42.684;23.252;2023-02-18T00:25:46;95040.25;;;2.75;64.30
11339;BME280;5724;42.684;23.252;2023-02-18T00:28:11;95036.94;;;2.59;64.67
11339;BME280;5724;42.684;23.252;2023-02-18T00:30:41;95032.44;;;2.54;64.89
11339;BME280;5724;42.684;23.252;2023-02-18T00:33:06;95006.56;;;2.72;64.49
11339;BME280;5724;42.684;23.252;2023-02-18T00:35:32;95014.16;;;2.70;64.58
11339;BME280;5724;42.684;23.252;2023-02-18T00:37:57;95021.34;;;2.56;65.24
11339;BME280;5724;42.684;23.252;2023-02-18T00:40:23;95027.69;;;2.65;64.81
11339;BME280;5724;42.684;23.252;2023-02-18T00:42:48;95014.28;;;2.60;65.01
11339;BME280;5724;42.684;23.252;2023-02-18T00:45:14;95027.69;;;2.65;64.68
11339;BME280;5724;42.684;23.252;2023-02-18T00:47:40;95022.38;;;2.60;64.76
11339;BME280;5724;42.684;23.252;2023-02-18T00:50:06;95013.47;;;2.59;63.81
11339;BME280;5724;42.684;23.252;2023-02-18T00:52:32;95020.25;;;2.57;65.18
11339;BME280;5724;42.684;23.252;2023-02-18T00:54:57;95012.00;;;2.29;65.48
11339;BME280;5724;42.684;23.252;2023-02-18T00:57:23;95002.13;;;2.44;65.28
11339;BME280;5724;42.684;23.252;2023-02-18T00:59:48;95019.16;;;2.58;65.43
11339;BME280;5724;42.684;23.252;2023-02-18T01:02:13;95026.94;;;2.41;65.73
11339;BME280;5724;42.684;23.252;2023-02-18T01:04:39;95009.69;;;2.42;65.85
11339;BME280;5724;42.684;23.252;2023-02-18T01:07:04;95015.09;;;2.42;65.94
11339;BME280;5724;42.684;23.252;2023-02-18T01:09:30;95013.06;;;2.52;65.21
11339;BME280;5724;42.684;23.252;2023-02-18T01:11:55;95014.66;;;2.53;65.29
11339;BME280;5724;42.684;23.252;2023-02-18T01:14:21;95013.25;;;2.56;65.17
11339;BME280;5724;42.684;23.252;2023-02-18T01:16:46;95012.16;;;2.57;65.40
11339;BME280;5724;42.684;23.252;2023-02-18T01:19:12;95007.13;;;2.50;65.62
11339;BME280;5724;42.684;23.252;2023-02-18T01:21:37;95015.88;;;2.23;66.13
11339;BME280;5724;42.684;23.252;2023-02-18T01:24:03;94986.47;;;2.22;66.76
11339;BME280;5724;42.684;23.252;2023-02-18T01:26:29;95003.25;;;2.19;67.16
11339;BME280;5724;42.684;23.252;2023-02-18T01:28:54;95020.69;;;2.26;66.74
11339;BME280;5724;42.684;23.252;2023-02-18T01:31:20;94999.31;;;2.30;66.92
11339;BME280;5724;42.684;23.252;2023-02-18T01:33:45;95001.59;;;2.42;66.80
11339;BME280;5724;42.684;23.252;2023-02-18T01:36:11;94986.72;;;2.25;66.58
11339;BME280;5724;42.684;23.252;2023-02-18T01:38:36;95013.53;;;2.36;66.60
11339;BME280;5724;42.684;23.252;2023-02-18T01:41:03;95012.16;;;2.38;66.51
11339;BME280;5724;42.684;23.252;2023-02-18T01:43:29;95002.97;;;2.39;66.61
11339;BME280;5724;42.684;23.252;2023-02-18T01:51:18;95017.41;;;2.48;66.50
11339;BME280;5724;42.684;23.252;2023-02-18T01:56:22;95019.47;;;2.56;66.17
11339;BME280;5724;42.684;23.252;2023-02-18T01:58:49;95027.69;;;2.65;65.89
11339;BME280;5724;42.684;23.252;2023-02-18T02:01:15;95015.59;;;2.63;65.71
11339;BME280;5724;42.684;23.252;2023-02-18T02:03:41;95035.13;;;2.73;65.46
11339;BME280;5724;42.684;23.252;2023-02-18T02:06:15;95038.13;;;2.72;65.53
11339;BME280;5724;42.684;23.252;2023-02-18T02:08:41;95026.75;;;2.75;65.56
11339;BME280;5724;42.684;23.252;2023-02-18T02:11:20;95021.50;;;2.65;65.55
11339;BME280;5724;42.684;23.252;2023-02-18T02:14:00;95008.59;;;2.62;66.02
11339;BME280;5724;42.684;23.252;2023-02-18T02:35:56;94996.56;;;2.35;66.99
11339;BME280;5724;42.684;23.252;2023-02-18T02:38:31;95002.31;;;2.47;66.71
11339;BME280;5724;42.684;23.252;2023-02-18T02:43:52;94989.63;;;2.29;67.70
11339;BME280;5724;42.684;23.252;2023-02-18T02:46:29;94997.25;;;2.22;67.85
11339;BME280;5724;42.684;23.252;2023-02-18T02:49:33;94984.63;;;2.22;67.75
11339;BME280;5724;42.684;23.252;2023-02-18T02:54:32;94990.44;;;2.29;67.44
11339;BME280;5724;42.684;23.252;2023-02-18T02:59:39;94998.19;;;2.12;68.45
11339;BME280;5724;42.684;23.252;2023-02-18T03:07:59;94993.03;;;1.97;68.92
11339;BME280;5724;42.684;23.252;2023-02-18T03:10:38;95018.53;;;2.05;69.11
11339;BME280;5724;42.684;23.252;2023-02-18T03:16:35;95009.94;;;2.21;68.48
11339;BME280;5724;42.684;23.252;2023-02-18T03:19:29;95008.94;;;2.17;68.19
11339;BME280;5724;42.684;23.252;2023-02-18T03:24:57;95013.81;;;2.15;69.18
11339;BME280;5724;42.684;23.252;2023-02-18T03:27:29;95015.22;;;1.89;69.29
11339;BME280;5724;42.684;23.252;2023-02-18T03:30:15;95028.47;;;1.85;69.87
11339;BME280;5724;42.684;23.252;2023-02-18T03:32:43;95037.47;;;1.76;69.54
11339;BME280;5724;42.684;23.252;2023-02-18T03:35:12;95042.03;;;1.75;69.68
11339;BME280;5724;42.684;23.252;2023-02-18T03:37:44;95034.94;;;1.84;69.56
11339;BME280;5724;42.684;23.252;2023-02-18T03:40:12;95043.94;;;1.98;68.66
11339;BME280;5724;42.684;23.252;2023-02-18T03:42:38;95039.28;;;1.80;69.23
11339;BME280;5724;42.684;23.252;2023-02-18T03:45:04;95051.25;;;1.93;69.83
11339;BME280;5724;42.684;23.252;2023-02-18T03:47:29;95039.28;;;2.04;69.13
11339;BME280;5724;42.684;23.252;2023-02-18T03:49:55;95057.63;;;1.78;69.48
11339;BME280;5724;42.684;23.252;2023-02-18T03:52:20;95075.50;;;1.93;69.27
11339;BME280;5724;42.684;23.252;2023-02-18T03:54:46;95060.06;;;2.04;67.93
11339;BME280;5724;42.684;23.252;2023-02-18T03:57:11;95068.28;;;2.12;68.53
11339;BME280;5724;42.684;23.252;2023-02-18T03:59:37;95062.03;;;2.17;68.99
11339;BME280;5724;42.684;23.252;2023-02-18T04:02:02;95065.84;;;2.16;68.91
11339;BME280;5724;42.684;23.252;2023-02-18T04:04:28;95053.19;;;2.11;69.52
11339;BME280;5724;42.684;23.252;2023-02-18T04:06:53;95047.78;;;2.16;68.85
11339;BME280;5724;42.684;23.252;2023-02-18T04:09:19;95050.38;;;2.21;69.06
11339;BME280;5724;42.684;23.252;2023-02-18T04:11:44;95054.59;;;2.33;69.21
11339;BME280;5724;42.684;23.252;2023-02-18T04:14:12;95039.47;;;2.32;68.83
11339;BME280;5724;42.684;23.252;2023-02-18T04:16:39;95047.56;;;2.32;68.92
11339;BME280;5724;42.684;23.252;2023-02-18T04:19:05;95035.31;;;2.20;68.36
11339;BME280;5724;42.684;23.252;2023-02-18T04:21:30;95012.72;;;2.16;68.44
11339;BME280;5724;42.684;23.252;2023-02-18T04:23:56;95037.53;;;2.37;68.36
11339;BME280;5724;42.684;23.252;2023-02-18T04:26:21;95021.63;;;2.36;68.44
11339;BME280;5724;42.684;23.252;2023-02-18T04:28:47;95020.19;;;2.43;67.50
11339;BME280;5724;42.684;23.252;2023-02-18T04:31:12;95006.41;;;2.45;67.77
11339;BME280;5724;42.684;23.252;2023-02-18T04:33:38;95020.34;;;2.52;67.63
11339;BME280;5724;42.684;23.252;2023-02-18T04:36:03;95010.56;;;2.56;67.82
11339;BME280;5724;42.684;23.252;2023-02-18T04:38:29;95014.81;;;2.62;65.90
11339;BME280;5724;42.684;23.252;2023-02-18T04:40:55;95020.56;;;2.74;64.55
11339;BME280;5724;42.684;23.252;2023-02-18T04:43:20;95017.91;;;2.69;65.59
11339;BME280;5724;42.684;23.252;2023-02-18T04:45:45;95012.16;;;2.38;67.35
11339;BME280;5724;42.684;23.252;2023-02-18T04:48:11;95019.53;;;2.33;67.19
11339;BME280;5724;42.684;23.252;2023-02-18T04:50:36;95020.06;;;2.53;65.25
11339;BME280;5724;42.684;23.252;2023-02-18T04:53:02;95016.69;;;2.43;67.58
11339;BME280;5724;42.684;23.252;2023-02-18T04:55:28;95030.88;;;2.29;68.51
11339;BME280;5724;42.684;23.252;2023-02-18T04:57:53;95028.81;;;2.21;68.77
11339;BME280;5724;42.684;23.252;2023-02-18T05:00:19;95018.69;;;2.13;69.07
11339;BME280;5724;42.684;23.252;2023-02-18T05:02:45;95036.00;;;2.07;69.20
11339;BME280;5724;42.684;23.252;2023-02-18T05:05:11;95047.94;;;2.01;69.55
11339;BME280;5724;42.684;23.252;2023-02-18T05:07:37;95054.50;;;1.95;69.82
11339;BME280;5724;42.684;23.252;2023-02-18T05:10:04;95065.09;;;2.10;70.02
11339;BME280;5724;42.684;23.252;2023-02-18T05:12:30;95054.41;;;2.00;69.56
11339;BME280;5724;42.684;23.252;2023-02-18T05:14:56;95058.78;;;1.96;69.38
11339;BME280;5724;42.684;23.252;2023-02-18T05:17:21;95050.13;;;1.99;69.88
11339;BME280;5724;42.684;23.252;2023-02-18T05:19:47;95036.31;;;2.06;69.98
11339;BME280;5724;42.684;23.252;2023-02-18T05:22:12;95035.81;;;2.04;70.67
11339;BME280;5724;42.684;23.252;2023-02-18T05:24:37;95050.63;;;2.01;70.62
11339;BME280;5724;42.684;23.252;2023-02-18T05:27:03;95038.75;;;2.02;70.61
11339;BME280;5724;42.684;23.252;2023-02-18T05:29:29;95040.09;;;2.05;69.68
11339;BME280;5724;42.684;23.252;2023-02-18T05:31:54;95039.22;;;2.09;70.40
11339;BME280;5724;42.684;23.252;2023-02-18T05:34:20;95031.38;;;2.13;70.39
11339;BME280;5724;42.684;23.252;2023-02-18T05:36:45;95015.19;;;2.13;69.90
11339;BME280;5724;42.684;23.252;2023-02-18T05:39:11;95027.97;;;2.02;70.21
11339;BME280;5724;42.684;23.252;2023-02-18T05:41:36;95014.13;;;1.90;70.51
11339;BME280;5724;42.684;23.252;2023-02-18T05:44:01;95022.53;;;2.07;70.03
11339;BME280;5724;42.684;23.252;2023-02-18T05:46:45;95033.16;;;2.22;69.66
11339;BME280;5724;42.684;23.252;2023-02-18T05:49:11;95023.22;;;2.18;69.49
11339;BME280;5724;42.684;23.252;2023-02-18T05:51:36;95026.56;;;2.28;69.33
11339;BME280;5724;42.684;23.252;2023-02-18T05:54:02;95029.94;;;2.39;69.08
11339;BME280;5724;42.684;23.252;2023-02-18T05:56:28;95059.13;;;2.56;68.39
11339;BME280;5724;42.684;23.252;2023-02-18T05:58:54;95058.75;;;2.44;68.89
11339;BME280;5724;42.684;23.252;2023-02-18T06:01:19;95046.09;;;2.20;68.99
11339;BME280;5724;42.684;23.252;2023-02-18T06:03:45;95055.66;;;2.32;69.13
11339;BME280;5724;42.684;23.252;2023-02-18T06:06:10;95064.19;;;2.39;69.65
11339;BME280;5724;42.684;23.252;2023-02-18T06:08:36;95043.56;;;2.48;69.58
11339;BME280;5724;42.684;23.252;2023-02-18T06:11:02;95045.03;;;2.59;69.19
11339;BME280;5724;42.684;23.252;2023-02-18T06:13:27;95060.38;;;2.64;69.38
11339;BME280;5724;42.684;23.252;2023-02-18T06:15:53;95042.94;;;2.75;69.46
11339;BME280;5724;42.684;23.252;2023-02-18T06:18:19;95056.56;;;2.83;69.56
11339;BME280;5724;42.684;23.252;2023-02-18T06:20:46;95054.09;;;2.87;69.45
11339;BME280;5724;42.684;23.252;2023-02-18T06:23:12;95054.03;;;2.92;69.47
11339;BME280;5724;42.684;23.252;2023-02-18T06:25:38;95041.03;;;2.94;67.90
11339;BME280;5724;42.684;23.252;2023-02-18T06:28:04;95051.38;;;3.06;67.24
11339;BME280;5724;42.684;23.252;2023-02-18T06:30:30;95044.50;;;3.13;67.25
11339;BME280;5724;42.684;23.252;2023-02-18T06:32:55;95035.44;;;3.23;66.97
11339;BME280;5724;42.684;23.252;2023-02-18T06:35:20;95041.84;;;3.27;66.66
11339;BME280;5724;42.684;23.252;2023-02-18T06:37:46;95038.28;;;3.45;66.22
11339;BME280;5724;42.684;23.252;2023-02-18T06:40:12;95027.38;;;3.37;66.51
11339;BME280;5724;42.684;23.252;2023-02-18T06:42:37;95047.63;;;3.53;66.65
11339;BME280;5724;42.684;23.252;2023-02-18T06:45:03;95052.09;;;3.44;65.85
11339;BME280;5724;42.684;23.252;2023-02-18T06:47:31;95048.66;;;3.57;65.53
11339;BME280;5724;42.684;23.252;2023-02-18T06:49:56;95045.03;;;3.62;65.72
11339;BME280;5724;42.684;23.252;2023-02-18T06:52:21;95017.16;;;3.34;65.36
11339;BME280;5724;42.684;23.252;2023-02-18T06:54:47;95008.47;;;3.37;65.25
11339;BME280;5724;42.684;23.252;2023-02-18T06:57:12;95038.25;;;3.64;65.24
11339;BME280;5724;42.684;23.252;2023-02-18T06:59:38;95039.88;;;3.79;65.54
11339;BME280;5724;42.684;23.252;2023-02-18T07:02:03;95030.56;;;3.71;65.52
11339;BME280;5724;42.684;23.252;2023-02-18T07:04:29;95049.03;;;3.64;64.61
11339;BME280;5724;42.684;23.252;2023-02-18T07:06:55;95033.75;;;3.73;64.03
11339;BME280;5724;42.684;23.252;2023-02-18T07:09:20;95028.75;;;3.94;64.06
11339;BME280;5724;42.684;23.252;2023-02-18T07:11:47;95044.69;;;4.10;63.52
11339;BME280;5724;42.684;23.252;2023-02-18T07:14:13;95030.88;;;4.25;62.68
11339;BME280;5724;42.684;23.252;2023-02-18T07:16:38;95028.19;;;4.25;62.46
11339;BME280;5724;42.684;23.252;2023-02-18T07:19:03;95021.13;;;4.38;62.92
11339;BME280;5724;42.684;23.252;2023-02-18T07:21:29;95020.94;;;4.34;61.52
11339;BME280;5724;42.684;23.252;2023-02-18T07:23:54;95013.81;;;4.38;61.61
11339;BME280;5724;42.684;23.252;2023-02-18T07:26:20;95012.72;;;4.39;62.02
11339;BME280;5724;42.684;23.252;2023-02-18T07:28:45;94998.59;;;4.28;61.90
11339;BME280;5724;42.684;23.252;2023-02-18T07:31:11;95009.41;;;4.15;62.62
11339;BME280;5724;42.684;23.252;2023-02-18T07:33:36;95018.22;;;4.34;62.37
11339;BME280;5724;42.684;23.252;2023-02-18T07:36:02;95028.34;;;4.42;61.88
11339;BME280;5724;42.684;23.252;2023-02-18T07:38:29;95034.53;;;4.56;62.20
11339;BME280;5724;42.684;23.252;2023-02-18T07:40:55;95032.19;;;4.77;61.38
11339;BME280;5724;42.684;23.252;2023-02-18T07:43:20;95051.44;;;4.62;61.86
11339;BME280;5724;42.684;23.252;2023-02-18T07:45:46;95051.06;;;4.69;61.49
11339;BME280;5724;42.684;23.252;2023-02-18T07:48:12;95054.72;;;4.86;61.58
11339;BME280;5724;42.684;23.252;2023-02-18T07:50:39;95064.16;;;5.11;61.04
11339;BME280;5724;42.684;23.252;2023-02-18T07:53:04;95060.44;;;5.43;67.87
11339;BME280;5724;42.684;23.252;2023-02-18T07:55:30;95059.34;;;5.75;64.33
11339;BME280;5724;42.684;23.252;2023-02-18T07:58:18;95060.59;;;5.92;59.51
11339;BME280;5724;42.684;23.252;2023-02-18T08:00:44;95057.75;;;5.30;60.98
11339;BME280;5724;42.684;23.252;2023-02-18T08:03:12;95026.75;;;5.13;61.20
11339;BME280;5724;42.684;23.252;2023-02-18T08:05:38;95054.09;;;5.26;60.77
11339;BME280;5724;42.684;23.252;2023-02-18T08:08:04;95049.88;;;4.97;61.00
11339;BME280;5724;42.684;23.252;2023-02-18T08:10:30;95026.59;;;4.74;61.99
11339;BME280;5724;42.684;23.252;2023-02-18T08:12:55;95052.41;;;4.80;62.35
11339;BME280;5724;42.684;23.252;2023-02-18T08:15:20;95029.78;;;4.76;61.25
11339;BME280;5724;42.684;23.252;2023-02-18T08:17:46;95040.31;;;5.00;61.62
11339;BME280;5724;42.684;23.252;2023-02-18T08:20:11;95043.25;;;5.03;60.26
11339;BME280;5724;42.684;23.252;2023-02-18T08:22:37;95042.00;;;5.09;60.40
11339;BME280;5724;42.684;23.252;2023-02-18T08:25:03;95032.16;;;5.36;61.07
11339;BME280;5724;42.684;23.252;2023-02-18T08:27:28;95028.81;;;5.61;60.24
11339;BME280;5724;42.684;23.252;2023-02-18T08:29:54;95020.97;;;6.22;67.36
11339;BME280;5724;42.684;23.252;2023-02-18T08:32:20;95014.34;;;6.54;60.44
11339;BME280;5724;42.684;23.252;2023-02-18T08:34:46;95022.06;;;6.78;57.92
11339;BME280;5724;42.684;23.252;2023-02-18T08:37:11;95006.09;;;6.85;55.65
11339;BME280;5724;42.684;23.252;2023-02-18T08:39:37;95024.50;;;7.05;54.69
11339;BME280;5724;42.684;23.252;2023-02-18T08:42:03;95025.59;;;7.22;54.04
11339;BME280;5724;42.684;23.252;2023-02-18T08:44:29;94997.78;;;7.25;54.26
11339;BME280;5724;42.684;23.252;2023-02-18T08:46:54;95020.44;;;7.55;53.42
11339;BME280;5724;42.684;23.252;2023-02-18T08:49:20;95008.97;;;7.23;53.75
11339;BME280;5724;42.684;23.252;2023-02-18T08:51:49;95014.41;;;7.23;53.69
11339;BME280;5724;42.684;23.252;2023-02-18T08:54:15;95011.38;;;7.25;54.08
11339;BME280;5724;42.684;23.252;2023-02-18T08:56:40;95024.97;;;7.25;54.67
11339;BME280;5724;42.684;23.252;2023-02-18T08:59:06;95030.53;;;7.45;54.36
11339;BME280;5724;42.684;23.252;2023-02-18T09:01:31;95029.22;;;7.69;54.19
11339;BME280;5724;42.684;23.252;2023-02-18T09:03:57;95033.13;;;7.97;53.97
11339;BME280;5724;42.684;23.252;2023-02-18T09:06:22;95033.22;;;8.18;53.63
11339;BME280;5724;42.684;23.252;2023-02-18T09:08:47;95038.59;;;8.44;53.35
11339;BME280;5724;42.684;23.252;2023-02-18T09:11:13;95040.94;;;8.54;52.72
11339;BME280;5724;42.684;23.252;2023-02-18T09:13:39;95026.47;;;8.63;52.33
11339;BME280;5724;42.684;23.252;2023-02-18T09:16:11;95026.16;;;8.85;52.37
11339;BME280;5724;42.684;23.252;2023-02-18T09:18:37;95040.16;;;9.04;52.12
11339;BME280;5724;42.684;23.252;2023-02-18T09:21:04;95041.34;;;9.15;50.63
11339;BME280;5724;42.684;23.252;2023-02-18T09:23:30;95023.56;;;8.38;52.73
11339;BME280;5724;42.684;23.252;2023-02-18T09:25:56;95014.06;;;8.06;53.27
11339;BME280;5724;42.684;23.252;2023-02-18T09:28:22;95024.25;;;8.18;53.68
11339;BME280;5724;42.684;23.252;2023-02-18T09:30:47;95007.22;;;8.29;53.92
11339;BME280;5724;42.684;23.252;2023-02-18T09:33:13;94992.22;;;8.23;53.09
11339;BME280;5724;42.684;23.252;2023-02-18T09:35:44;94987.53;;;8.32;52.61
11339;BME280;5724;42.684;23.252;2023-02-18T09:38:12;95000.78;;;8.43;52.03
11339;BME280;5724;42.684;23.252;2023-02-18T09:40:42;95003.38;;;8.69;51.77
11339;BME280;5724;42.684;23.252;2023-02-18T09:43:24;95004.91;;;9.20;50.57
11339;BME280;5724;42.684;23.252;2023-02-18T09:45:52;95005.78;;;9.66;49.35
11339;BME280;5724;42.684;23.252;2023-02-18T09:48:17;94999.69;;;9.93;46.64
11339;BME280;5724;42.684;23.252;2023-02-18T09:50:46;94996.00;;;10.22;46.33
11339;BME280;5724;42.684;23.252;2023-02-18T09:53:14;95004.31;;;10.50;45.58
11339;BME280;5724;42.684;23.252;2023-02-18T09:55:40;94999.66;;;10.75;44.73
11339;BME280;5724;42.684;23.252;2023-02-18T09:58:12;94992.03;;;10.81;45.04
11339;BME280;5724;42.684;23.252;2023-02-18T10:00:45;94984.84;;;10.76;43.62
11339;BME280;5724;42.684;23.252;2023-02-18T10:03:18;94974.97;;;11.12;42.18
11339;BME280;5724;42.684;23.252;2023-02-18T10:06:01;94981.44;;;11.47;42.44
11339;BME280;5724;42.684;23.252;2023-02-18T10:08:31;94969.47;;;11.80;41.70
11339;BME280;5724;42.684;23.252;2023-02-18T10:10:58;94969.94;;;12.14;40.51
11339;BME280;5724;42.684;23.252;2023-02-18T10:13:27;94970.81;;;12.49;39.37
11339;BME280;5724;42.684;23.252;2023-02-18T10:15:53;94971.72;;;12.88;37.99
11339;BME280;5724;42.684;23.252;2023-02-18T10:18:30;94969.84;;;13.28;37.25
11339;BME280;5724;42.684;23.252;2023-02-18T10:21:05;94975.97;;;13.60;36.29
11339;BME280;5724;42.684;23.252;2023-02-18T10:23:33;94971.94;;;13.96;34.35
11339;BME280;5724;42.684;23.252;2023-02-18T10:26:03;94959.56;;;14.06;33.72
11339;BME280;5724;42.684;23.252;2023-02-18T10:28:31;94969.50;;;14.37;32.93
11339;BME280;5724;42.684;23.252;2023-02-18T10:31:01;94944.69;;;14.79;32.54
11339;BME280;5724;42.684;23.252;2023-02-18T10:33:48;94955.44;;;15.17;34.47
11339;BME280;5724;42.684;23.252;2023-02-18T10:36:23;94959.00;;;15.18;34.89
11339;BME280;5724;42.684;23.252;2023-02-18T10:39:05;94936.34;;;15.32;34.43
11339;BME280;5724;42.684;23.252;2023-02-18T10:49:58;94931.41;;;14.58;34.82
11339;BME280;5724;42.684;23.252;2023-02-18T10:52:29;94930.97;;;14.56;34.38
11339;BME280;5724;42.684;23.252;2023-02-18T10:55:01;94939.97;;;14.07;32.33
11339;BME280;5724;42.684;23.252;2023-02-18T10:57:31;94938.91;;;13.50;32.17
11339;BME280;5724;42.684;23.252;2023-02-18T11:00:02;94932.94;;;13.25;32.60
11339;BME280;5724;42.684;23.252;2023-02-18T11:02:38;94919.72;;;13.31;33.00
11339;BME280;5724;42.684;23.252;2023-02-18T11:05:23;94919.91;;;13.61;32.43
11339;BME280;5724;42.684;23.252;2023-02-18T11:07:51;94917.63;;;13.86;32.03
11339;BME280;5724;42.684;23.252;2023-02-18T11:10:30;94914.97;;;14.16;31.19
11339;BME280;5724;42.684;23.252;2023-02-18T11:12:59;94909.59;;;14.46;31.09
11339;BME280;5724;42.684;23.252;2023-02-18T11:15:26;94903.81;;;14.51;31.08
11339;BME280;5724;42.684;23.252;2023-02-18T11:17:55;94894.56;;;14.40;30.62
11339;BME280;5724;42.684;23.252;2023-02-18T11:22:56;94905.25;;;14.45;30.71
11339;BME280;5724;42.684;23.252;2023-02-18T11:25:27;94892.94;;;14.62;29.95
11339;BME280;5724;42.684;23.252;2023-02-18T11:28:00;94892.53;;;14.59;30.33
11339;BME280;5724;42.684;23.252;2023-02-18T11:30:37;94878.88;;;14.67;30.08
11339;BME280;5724;42.684;23.252;2023-02-18T11:35:57;94862.97;;;14.53;30.53
11339;BME280;5724;42.684;23.252;2023-02-18T11:38:49;94858.63;;;14.78;29.89
11339;BME280;5724;42.684;23.252;2023-02-18T11:41:18;94827.97;;;14.50;29.88
11339;BME280;5724;42.684;23.252;2023-02-18T11:43:47;94875.16;;;14.82;29.95
11339;BME280;5724;42.684;23.252;2023-02-18T11:46:25;94865.09;;;14.93;30.26
11339;BME280;5724;42.684;23.252;2023-02-18T11:48:52;94855.53;;;14.83;30.08
11339;BME280;5724;42.684;23.252;2023-02-18T11:51:27;94858.88;;;15.00;30.31
11339;BME280;5724;42.684;23.252;2023-02-18T11:54:18;94853.53;;;15.14;30.51
11339;BME280;5724;42.684;23.252;2023-02-18T11:56:57;94831.16;;;15.15;30.00
11339;BME280;5724;42.684;23.252;2023-02-18T11:59:25;94841.19;;;15.34;29.96
11339;BME280;5724;42.684;23.252;2023-02-18T12:02:05;94852.28;;;15.41;29.98
11339;BME280;5724;42.684;23.252;2023-02-18T12:07:30;94830.94;;;15.31;30.34
11339;BME280;5724;42.684;23.252;2023-02-18T12:10:32;94838.19;;;15.46;30.46
11339;BME280;5724;42.684;23.252;2023-02-18T12:18:35;94831.78;;;15.35;30.39
11339;BME280;5724;42.684;23.252;2023-02-18T12:24:05;94820.59;;;15.21;30.94
11339;BME280;5724;42.684;23.252;2023-02-18T12:29:58;94796.41;;;15.04;31.06
11339;BME280;5724;42.684;23.252;2023-02-18T12:37:46;94795.44;;;15.23;31.47
11339;BME280;5724;42.684;23.252;2023-02-18T12:42:58;94792.66;;;15.19;31.48
11339;BME280;5724;42.684;23.252;2023-02-18T12:45:40;94779.41;;;15.32;31.58
11339;BME280;5724;42.684;23.252;2023-02-18T12:48:56;94776.72;;;15.35;31.94
11339;BME280;5724;42.684;23.252;2023-02-18T12:51:24;94756.09;;;15.18;31.91
11339;BME280;5724;42.684;23.252;2023-02-18T12:54:08;94777.84;;;15.34;31.22
11339;BME280;5724;42.684;23.252;2023-02-18T12:59:35;94781.28;;;15.21;31.75
11339;BME280;5724;42.684;23.252;2023-02-18T13:13:25;94781.13;;;15.84;31.25
11339;BME280;5724;42.684;23.252;2023-02-18T13:15:58;94780.44;;;16.01;31.50
11339;BME280;5724;42.684;23.252;2023-02-18T13:19:13;94780.88;;;16.03;31.06
11339;BME280;5724;42.684;23.252;2023-02-18T13:21:32;94770.56;;;15.93;31.44
11339;BME280;5724;42.684;23.252;2023-02-18T13:24:05;94774.97;;;16.05;31.53
11339;BME280;5724;42.684;23.252;2023-02-18T13:26:32;94775.59;;;15.84;31.61
11339;BME280;5724;42.684;23.252;2023-02-18T13:39:32;94774.91;;;15.13;32.82
11339;BME280;5724;42.684;23.252;2023-02-18T13:47:41;94775.94;;;14.98;33.68
11339;BME280;5724;42.684;23.252;2023-02-18T14:01:01;94780.19;;;14.05;37.26
11339;BME280;5724;42.684;23.252;2023-02-18T14:03:34;94779.56;;;13.66;38.07
11339;BME280;5724;42.684;23.252;2023-02-18T14:06:00;94778.06;;;13.45;38.47
11339;BME280;5724;42.684;23.252;2023-02-18T14:08:34;94785.44;;;13.41;38.96
11339;BME280;5724;42.684;23.252;2023-02-18T14:19:37;94775.63;;;12.79;40.61
11339;BME280;5724;42.684;23.252;2023-02-18T14:25:34;94775.19;;;12.77;41.20
11339;BME280;5724;42.684;23.252;2023-02-18T14:28:03;94787.19;;;12.69;40.94
11339;BME280;5724;42.684;23.252;2023-02-18T14:30:48;94774.69;;;12.71;40.84
11339;BME280;5724;42.684;23.252;2023-02-18T14:33:15;94797.56;;;12.59;40.79
11339;BME280;5724;42.684;23.252;2023-02-18T14:35:52;94766.31;;;12.45;41.20
11339;BME280;5724;42.684;23.252;2023-02-18T14:51:47;94792.16;;;12.63;41.80
11339;BME280;5724;42.684;23.252;2023-02-18T14:54:18;94766.78;;;12.66;41.85
11339;BME280;5724;42.684;23.252;2023-02-18T14:59:20;94766.19;;;12.57;42.15
11339;BME280;5724;42.684;23.252;2023-02-18T15:01:48;94781.13;;;12.59;42.00
11339;BME280;5724;42.684;23.252;2023-02-18T15:04:14;94768.06;;;12.53;42.51
11339;BME280;5724;42.684;23.252;2023-02-18T15:06:40;94762.22;;;12.54;42.47
11339;BME280;5724;42.684;23.252;2023-02-18T15:09:17;94762.78;;;12.44;42.51
11339;BME280;5724;42.684;23.252;2023-02-18T15:11:46;94778.38;;;12.40;42.86
11339;BME280;5724;42.684;23.252;2023-02-18T15:14:18;94777.56;;;12.40;43.04
11339;BME280;5724;42.684;23.252;2023-02-18T15:16:45;94776.63;;;12.32;43.48
11339;BME280;5724;42.684;23.252;2023-02-18T15:19:14;94772.72;;;12.33;43.34
11339;BME280;5724;42.684;23.252;2023-02-18T15:21:44;94773.03;;;12.28;43.57
11339;BME280;5724;42.684;23.252;2023-02-18T15:26:44;94770.25;;;12.09;44.45
11339;BME280;5724;42.684;23.252;2023-02-18T15:29:17;94752.28;;;11.92;44.28
11339;BME280;5724;42.684;23.252;2023-02-18T15:31:45;94756.66;;;11.96;44.79
11339;BME280;5724;42.684;23.252;2023-02-18T15:34:35;94769.44;;;11.89;44.51
11339;BME280;5724;42.684;23.252;2023-02-18T15:37:04;94763.56;;;11.74;44.82
11339;BME280;5724;42.684;23.252;2023-02-18T15:39:30;94752.56;;;11.71;45.43
11339;BME280;5724;42.684;23.252;2023-02-18T15:42:05;94753.97;;;11.65;45.71
11339;BME280;5724;42.684;23.252;2023-02-18T15:44:33;94761.66;;;11.59;45.82
11339;BME280;5724;42.684;23.252;2023-02-18T15:47:02;94750.47;;;11.49;45.78
11339;BME280;5724;42.684;23.252;2023-02-18T15:49:29;94734.84;;;11.49;45.80
11339;BME280;5724;42.684;23.252;2023-02-18T15:51:57;94741.47;;;11.32;46.67